Terminal Aerodrome Forecast
Issued by NWS Dallas/Fort Worth, TX

Home | Current Version | Previous Version | Text Only | Print | Product List | Glossary On
Versions: 1 2 3 4 5 6 7 8 9 10 11 12 13 14 15 16 17 18 19 20 21 22 23 24 25 26 27
000
FTUS44 KFWD 162300
TAFACT
TAF
KACT 162329Z 1700/1724 17020G30KT P6SM BKN250
     FM170100 14013KT P6SM SCT040 BKN250
     FM170800 14009KT P6SM OVC010
     FM171200 14009KT P6SM OVC007
     FM171500 14009KT P6SM OVC015
     FM171800 15009KT P6SM OVC025=

USA.gov is the U.S. government's official web portal to all federal, state and local government web resources and services.